Time;durP1;ratioP1;P1;durP2;ratioP2;P2;SDS_P1;SDS_P2;PMS_P1;PMS_P2;Temp;Humidity;BMP_temperature;BMP_pressure;BME280_temperature;BME280_humidity;BME280_pressure;Samples;Min_cycle;Max_cycle;Signal;HPM_P1;HPM_P2
2022/03/09 00:01:19;;;;;;;13.15;7.78;;;2.30;99.90;;;;;;5149146;27;20038;-64
2022/03/09 00:07:10;;;;;;;10.80;7.53;;;2.30;99.90;;;;;;5084767;28;20044;-64
2022/03/09 00:09:45;;;;;;;12.20;7.18;;;2.40;99.90;;;;;;5147964;27;20042;-64
2022/03/09 00:12:16;;;;;;;14.68;7.40;;;2.40;99.90;;;;;;5148214;27;20034;-64
2022/03/09 00:15:10;;;;;;;11.93;7.43;;;2.40;99.90;;;;;;5149081;27;20482;-64
2022/03/09 00:17:46;;;;;;;10.90;6.68;;;2.40;99.90;;;;;;5148047;27;20045;-64
2022/03/09 00:20:17;;;;;;;11.68;7.18;;;2.40;99.90;;;;;;5147547;27;20106;-64
2022/03/09 00:22:45;;;;;;;11.25;7.18;;;2.40;99.90;;;;;;5149634;27;20131;-64
2022/03/09 00:25:24;;;;;;;12.30;7.72;;;2.40;99.90;;;;;;5151081;27;20039;-64
2022/03/09 00:28:01;;;;;;;11.82;8.02;;;2.30;99.90;;;;;;5148127;27;20061;-64
2022/03/09 00:30:41;;;;;;;11.68;7.72;;;2.30;99.90;;;;;;5149830;27;20042;-64
2022/03/09 00:33:17;;;;;;;11.32;7.07;;;2.20;99.90;;;;;;5149318;27;20502;-64
2022/03/09 00:35:55;;;;;;;11.57;8.30;;;2.20;99.90;;;;;;5148569;27;20575;-64
2022/03/09 00:38:36;;;;;;;13.60;8.48;;;2.10;99.90;;;;;;5148434;27;20034;-64
2022/03/09 00:41:17;;;;;;;12.37;8.10;;;2.10;99.90;;;;;;5149980;27;20494;-64
2022/03/09 00:43:56;;;;;;;13.25;7.93;;;2.00;99.90;;;;;;5146260;27;20776;-64
2022/03/09 00:46:25;;;;;;;14.38;7.97;;;2.00;99.90;;;;;;5148929;27;20038;-64
2022/03/09 00:49:09;;;;;;;15.75;7.85;;;1.90;99.90;;;;;;5145858;27;20091;-64
2022/03/09 00:51:35;;;;;;;12.73;8.05;;;1.90;99.90;;;;;;5148224;27;20125;-64
2022/03/09 00:54:07;;;;;;;12.82;7.75;;;1.90;99.90;;;;;;5126753;27;20157;-64
2022/03/09 00:56:38;;;;;;;11.82;8.00;;;1.90;99.90;;;;;;5146887;27;20082;-64
2022/03/09 00:59:13;;;;;;;10.50;7.47;;;1.90;99.90;;;;;;5146562;27;20053;-64
2022/03/09 01:01:50;;;;;;;12.15;7.57;;;1.90;99.90;;;;;;5143719;27;20091;-65
2022/03/09 01:04:51;;;;;;;;;;;1.90;99.90;;;;;;5147448;27;20076;-64
2022/03/09 01:07:19;;;;;;;12.68;7.40;;;1.90;99.90;;;;;;5136716;27;19915;-64
2022/03/09 01:09:54;;;;;;;13.52;7.85;;;1.90;99.90;;;;;;5146534;27;20043;-64
2022/03/09 01:12:49;;;;;;;12.13;7.85;;;1.90;99.90;;;;;;5140555;27;20055;-64
2022/03/09 01:15:39;;;;;;;14.40;7.70;;;1.90;99.90;;;;;;5148158;27;20122;-64
2022/03/09 01:18:16;;;;;;;10.68;7.28;;;2.00;99.90;;;;;;5146076;27;20038;-64
2022/03/09 01:20:51;;;;;;;12.68;7.85;;;2.00;99.90;;;;;;5146856;27;20072;-64
2022/03/09 01:23:30;;;;;;;11.75;7.82;;;2.00;99.90;;;;;;5146654;27;20130;-64
2022/03/09 01:26:28;;;;;;;12.63;7.95;;;2.00;99.90;;;;;;5129183;27;20134;-64
2022/03/09 01:29:17;;;;;;;17.45;8.00;;;2.00;99.90;;;;;;5143883;27;20045;-64
2022/03/09 01:32:34;;;;;;;12.80;8.07;;;2.00;99.90;;;;;;5146351;27;20452;-64
2022/03/09 01:38:00;;;;;;;12.57;7.65;;;1.90;99.90;;;;;;5131141;27;20050;-64
2022/03/09 01:40:30;;;;;;;16.15;8.15;;;1.90;99.90;;;;;;5148146;27;20060;-64
2022/03/09 01:42:58;;;;;;;11.70;8.43;;;1.80;99.90;;;;;;5147788;27;20027;-64
2022/03/09 01:45:28;;;;;;;13.63;8.15;;;1.80;99.90;;;;;;5140487;27;20042;-64
2022/03/09 01:48:03;;;;;;;12.55;8.18;;;1.70;99.90;;;;;;5148678;27;20070;-64
2022/03/09 01:50:32;;;;;;;17.13;8.13;;;1.70;99.90;;;;;;5146467;27;20042;-64
2022/03/09 01:53:04;;;;;;;13.50;8.15;;;2.40;99.90;;;;;;5148122;27;20190;-64
2022/03/09 01:55:41;;;;;;;12.60;7.72;;;1.60;99.90;;;;;;5146222;27;20674;-64
2022/03/09 01:58:21;;;;;;;15.75;8.45;;;1.50;99.90;;;;;;5145115;27;20483;-64
2022/03/09 02:00:58;;;;;;;12.15;7.78;;;1.50;99.90;;;;;;5146922;27;20054;-64
2022/03/09 02:03:32;;;;;;;12.80;7.43;;;1.50;99.90;;;;;;5147002;27;20023;-64
2022/03/09 02:06:10;;;;;;;16.50;9.00;;;1.50;99.90;;;;;;5146609;27;20122;-64
2022/03/09 02:11:54;;;;;;;;;;;1.50;99.90;;;;;;5146759;27;20106;-64
2022/03/09 02:14:27;;;;;;;13.25;8.50;;;1.40;99.90;;;;;;5146669;27;19922;-64
2022/03/09 02:17:05;;;;;;;13.82;8.40;;;1.40;99.90;;;;;;5149096;27;20043;-64
2022/03/09 02:19:40;;;;;;;16.80;8.50;;;1.40;99.90;;;;;;5151552;27;20052;-64
2022/03/09 02:25:44;;;;;;;13.43;8.02;;;1.30;99.90;;;;;;5134178;27;20043;-63
2022/03/09 02:28:15;;;;;;;14.38;8.38;;;1.20;99.90;;;;;;5151851;27;20050;-64
2022/03/09 02:31:10;;;;;;;14.93;8.93;;;1.20;99.90;;;;;;5151061;27;20057;-64
2022/03/09 02:33:54;;;;;;;16.50;8.10;;;1.20;99.90;;;;;;5150469;27;20474;-63
2022/03/09 02:36:25;;;;;;;13.35;8.30;;;1.20;99.90;;;;;;5132957;27;20432;-63
2022/03/09 02:38:59;;;;;;;14.05;8.90;;;1.20;99.90;;;;;;5150989;27;20382;-63
2022/03/09 02:41:29;;;;;;;13.93;8.13;;;1.20;99.90;;;;;;5151956;27;20370;-63
2022/03/09 02:43:55;;;;;;;15.23;8.73;;;1.20;99.90;;;;;;5150028;27;20031;-64
2022/03/09 02:49:19;;;;;;;14.85;8.93;;;1.10;99.90;;;;;;5149234;27;20042;-64
2022/03/09 02:51:52;;;;;;;16.23;8.85;;;1.00;99.90;;;;;;5150891;27;20360;-64
2022/03/09 02:54:23;;;;;;;;;;;1.00;99.90;;;;;;5132314;27;20481;-63
2022/03/09 02:57:03;;;;;;;14.30;9.07;;;1.00;99.90;;;;;;5148602;27;19915;-63
2022/03/09 03:05:32;;;;;;;16.50;8.82;;;0.90;99.90;;;;;;5141592;27;20035;-63
2022/03/09 03:07:58;;;;;;;16.17;8.75;;;0.80;99.90;;;;;;5150419;27;20136;-63
2022/03/09 03:10:57;;;;;;;15.93;9.02;;;0.80;99.90;;;;;;5149093;27;20501;-64
2022/03/09 03:13:34;;;;;;;14.48;8.77;;;0.80;99.90;;;;;;5150839;27;20063;-64
2022/03/09 03:16:14;;;;;;;14.57;8.75;;;0.70;99.90;;;;;;5151356;27;20034;-63
2022/03/09 03:19:05;;;;;;;12.70;8.18;;;0.70;99.90;;;;;;5152050;27;20035;-63
2022/03/09 03:21:40;;;;;;;13.77;8.35;;;0.60;99.90;;;;;;5151038;27;20034;-64
2022/03/09 03:24:11;;;;;;;14.38;8.95;;;0.60;99.90;;;;;;5151285;27;20073;-63
2022/03/09 03:26:40;;;;;;;16.05;8.70;;;0.50;99.90;;;;;;5147067;27;20057;-64
2022/03/09 03:29:18;;;;;;;16.92;8.88;;;0.50;99.90;;;;;;5152076;27;20127;-64
2022/03/09 03:32:16;;;;;;;17.05;9.38;;;0.50;99.90;;;;;;5150293;27;20126;-64
2022/03/09 03:34:48;;;;;;;15.70;8.88;;;0.40;99.90;;;;;;5149448;27;20211;-63
2022/03/09 03:37:19;;;;;;;13.57;8.55;;;0.40;99.90;;;;;;5150826;27;20043;-63
2022/03/09 03:39:58;;;;;;;15.30;9.23;;;0.40;99.90;;;;;;5148520;27;20127;-64
2022/03/09 03:42:44;;;;;;;14.05;9.20;;;0.30;99.90;;;;;;5141884;27;20043;-63
2022/03/09 03:45:20;;;;;;;14.50;8.95;;;0.30;99.90;;;;;;5147066;27;20387;-63
2022/03/09 03:47:46;;;;;;;15.07;8.20;;;0.50;99.90;;;;;;5148927;27;20046;-64
2022/03/09 03:50:21;;;;;;;16.27;9.30;;;0.30;99.90;;;;;;5149183;27;20046;-63
2022/03/09 03:53:08;;;;;;;16.25;9.10;;;0.20;99.90;;;;;;5149174;27;20079;-64
2022/03/09 03:55:36;;;;;;;15.45;8.90;;;0.30;99.90;;;;;;5147371;27;20042;-64
2022/03/09 03:58:06;;;;;;;15.23;8.77;;;0.20;99.90;;;;;;5147487;27;20055;-64
2022/03/09 04:00:32;;;;;;;15.98;9.50;;;0.30;99.90;;;;;;5147709;27;20104;-63
2022/03/09 04:03:06;;;;;;;16.15;8.95;;;0.20;99.90;;;;;;5145808;27;20038;-64
2022/03/09 04:05:41;;;;;;;16.85;9.18;;;0.20;99.90;;;;;;5130410;27;20062;-64
2022/03/09 04:08:09;;;;;;;16.02;9.32;;;0.20;99.90;;;;;;5149932;27;20039;-64
2022/03/09 04:10:43;;;;;;;18.48;9.80;;;0.20;99.90;;;;;;5149924;27;20081;-64
2022/03/09 04:13:17;;;;;;;16.42;9.77;;;0.20;99.90;;;;;;5147524;27;20057;-64
2022/03/09 04:15:45;;;;;;;13.63;8.82;;;0.10;99.90;;;;;;5147832;27;20050;-63
2022/03/09 04:18:29;;;;;;;14.85;9.57;;;0.10;99.90;;;;;;5130164;27;20099;-63
2022/03/09 04:21:01;;;;;;;15.88;9.30;;;0.10;99.90;;;;;;5149466;27;20038;-63
2022/03/09 04:23:42;;;;;;;14.57;9.20;;;0.10;99.90;;;;;;5147074;27;20043;-63
2022/03/09 04:26:17;;;;;;;13.95;9.10;;;0.10;99.90;;;;;;5147693;27;20051;-64
2022/03/09 04:32:12;;;;;;;16.95;9.30;;;0.10;99.90;;;;;;5146970;27;20043;-64
2022/03/09 04:34:43;;;;;;;19.60;9.07;;;0.10;99.90;;;;;;5146022;27;20066;-64
2022/03/09 04:37:26;;;;;;;14.27;8.88;;;0.10;99.90;;;;;;5147976;27;20039;-63
2022/03/09 04:40:16;;;;;;;14.43;8.48;;;0.10;99.90;;;;;;5149428;27;20053;-63
2022/03/09 04:42:47;;;;;;;14.65;8.68;;;0.10;99.90;;;;;;5147971;27;20067;-64
2022/03/09 04:45:16;;;;;;;12.80;8.43;;;0.10;99.90;;;;;;5150025;27;20383;-63
2022/03/09 04:47:50;;;;;;;15.00;7.90;;;0.20;99.90;;;;;;5148226;27;20050;-64
2022/03/09 04:50:24;;;;;;;17.42;8.45;;;0.20;99.90;;;;;;5147173;27;20429;-64
2022/03/09 04:52:53;;;;;;;13.55;8.27;;;0.30;99.90;;;;;;5147734;27;22084;-63
2022/03/09 04:55:25;;;;;;;13.80;8.40;;;0.30;99.90;;;;;;5149327;27;20474;-64
2022/03/09 04:57:59;;;;;;;11.73;7.88;;;0.40;99.90;;;;;;5149824;27;20043;-63
2022/03/09 05:00:36;;;;;;;13.85;8.02;;;0.30;99.90;;;;;;5149472;27;20543;-63
2022/03/09 05:03:02;;;;;;;12.82;7.97;;;0.30;99.90;;;;;;5148081;27;20042;-64
2022/03/09 05:05:41;;;;;;;15.30;8.43;;;0.20;99.90;;;;;;5131680;27;20065;-64
2022/03/09 05:08:13;;;;;;;13.23;7.65;;;0.20;99.90;;;;;;5150161;27;20505;-63
2022/03/09 05:10:42;;;;;;;12.65;7.85;;;0.20;99.90;;;;;;5148850;27;20031;-64
2022/03/09 05:13:20;;;;;;;16.52;9.05;;;0.10;99.90;;;;;;5147761;27;20479;-63
2022/03/09 05:16:01;;;;;;;12.73;8.25;;;0.10;99.90;;;;;;5147547;27;20089;-63
2022/03/09 05:18:37;;;;;;;15.70;9.30;;;0.10;99.90;;;;;;5147607;27;20042;-64
2022/03/09 05:21:08;;;;;;;;;;;0.00;99.90;;;;;;5149485;27;20035;-64
2022/03/09 05:23:39;;;;;;;14.02;7.72;;;0.00;99.90;;;;;;5148314;27;19921;-64
2022/03/09 05:26:21;;;;;;;15.60;8.10;;;0.00;99.90;;;;;;5148251;27;20023;-64
2022/03/09 05:28:50;;;;;;;14.77;8.40;;;0.00;99.90;;;;;;5147899;27;20051;-63
2022/03/09 05:31:28;;;;;;;16.48;8.93;;;-0.10;99.90;;;;;;5144318;27;20070;-63
2022/03/09 05:34:01;;;;;;;15.55;8.05;;;-0.10;99.90;;;;;;5146860;27;20477;-63
2022/03/09 05:36:32;;;;;;;14.65;8.50;;;-0.10;99.90;;;;;;5149902;27;20039;-64
2022/03/09 05:39:07;;;;;;;12.25;8.15;;;0.00;99.90;;;;;;5147722;27;20034;-63
2022/03/09 05:41:36;;;;;;;12.75;7.85;;;-0.10;99.90;;;;;;5149365;27;20117;-63
2022/03/09 05:44:07;;;;;;;16.50;9.43;;;-0.20;99.90;;;;;;5144624;27;20038;-63
2022/03/09 05:46:33;;;;;;;15.93;8.50;;;-0.20;99.90;;;;;;5148552;27;20113;-64
2022/03/09 05:49:27;;;;;;;13.57;8.10;;;-0.20;99.90;;;;;;5149325;27;20121;-64
2022/03/09 05:51:59;;;;;;;13.60;8.40;;;-0.20;99.90;;;;;;5138655;27;20053;-64
2022/03/09 05:54:31;;;;;;;14.68;8.07;;;-0.20;99.90;;;;;;5152740;27;20042;-64
2022/03/09 05:57:02;;;;;;;12.27;7.95;;;-0.20;99.90;;;;;;5150305;27;20050;-63
2022/03/09 05:59:52;;;;;;;13.35;8.02;;;-0.20;99.90;;;;;;5150628;27;20046;-64
2022/03/09 06:02:26;;;;;;;15.02;8.32;;;-0.20;99.90;;;;;;5152406;27;20031;-64
2022/03/09 06:05:06;;;;;;;16.45;8.80;;;-0.20;99.90;;;;;;5149572;27;20042;-63
2022/03/09 06:07:52;;;;;;;15.20;8.00;;;-0.20;99.90;;;;;;5151533;27;20547;-63
2022/03/09 06:10:44;;;;;;;12.68;7.95;;;-0.20;99.90;;;;;;5149700;27;20121;-63
2022/03/09 06:13:18;;;;;;;14.43;8.10;;;-0.20;99.90;;;;;;5146292;27;20039;-63
2022/03/09 06:15:53;;;;;;;15.80;8.93;;;-0.20;99.90;;;;;;5150916;27;20113;-63
2022/03/09 06:18:30;;;;;;;16.55;8.85;;;-0.20;99.90;;;;;;5151116;27;20031;-64
2022/03/09 06:21:04;;;;;;;13.48;8.77;;;-0.30;99.90;;;;;;5152689;27;20386;-63
2022/03/09 06:23:36;;;;;;;15.18;9.00;;;-0.20;99.90;;;;;;5151245;27;20027;-63
2022/03/09 06:26:19;;;;;;;13.80;8.55;;;-0.30;99.90;;;;;;5148936;27;20050;-63
2022/03/09 06:28:51;;;;;;;14.82;8.63;;;-0.30;99.90;;;;;;5149341;27;20505;-63
2022/03/09 06:31:18;;;;;;;15.88;8.45;;;-0.30;99.90;;;;;;5147898;27;20077;-63
2022/03/09 06:33:54;;;;;;;15.52;8.48;;;-0.30;99.90;;;;;;5150083;27;20031;-63
2022/03/09 06:36:27;;;;;;;13.90;8.10;;;-0.20;99.90;;;;;;5152089;27;20042;-63
2022/03/09 06:38:59;;;;;;;13.02;8.15;;;-0.20;99.90;;;;;;5150710;27;20039;-63
2022/03/09 06:41:30;;;;;;;12.77;7.90;;;-0.20;99.90;;;;;;5149810;27;20055;-63
2022/03/09 06:44:12;;;;;;;15.07;8.48;;;-0.20;99.90;;;;;;5147583;27;20038;-64
2022/03/09 06:46:47;;;;;;;14.43;8.32;;;-0.10;99.90;;;;;;5149487;27;20070;-63
2022/03/09 06:52:21;;;;;;;12.88;7.72;;;-0.10;99.90;;;;;;5132661;27;20039;-63
2022/03/09 06:55:03;;;;;;;;;;;;;;;;;;;;;
2022/03/09 06:57:35;;;;;;;13.90;8.32;;;0.00;99.90;;;;;;5151507;27;20384;-64
2022/03/09 07:00:16;;;;;;;14.70;8.10;;;0.10;99.90;;;;;;5150249;27;20386;-64
2022/03/09 07:02:48;;;;;;;14.60;8.20;;;0.20;99.90;;;;;;5149511;27;20447;-63
2022/03/09 07:05:25;;;;;;;11.75;7.72;;;0.20;99.90;;;;;;5149966;27;20379;-63
2022/03/09 07:07:56;;;;;;;13.68;8.05;;;0.20;99.90;;;;;;5148247;27;20490;-63
2022/03/09 07:10:27;;;;;;;14.98;8.27;;;0.30;99.90;;;;;;5147648;27;20043;-64
2022/03/09 07:13:01;;;;;;;12.73;8.18;;;0.40;99.90;;;;;;5149662;27;20490;-64
2022/03/09 07:15:30;;;;;;;12.75;8.27;;;0.40;99.90;;;;;;5150970;27;20413;-64
2022/03/09 07:18:01;;;;;;;14.75;8.60;;;0.50;99.90;;;;;;5130099;27;20045;-64
2022/03/09 07:20:43;;;;;;;13.35;7.72;;;0.60;99.90;;;;;;5149214;27;20047;-63
2022/03/09 07:23:14;;;;;;;14.00;8.35;;;0.70;99.90;;;;;;5149755;27;20031;-63
2022/03/09 07:25:51;;;;;;;13.05;7.93;;;0.80;99.90;;;;;;5149103;27;20045;-64
2022/03/09 07:28:48;;;;;;;12.90;7.35;;;0.90;99.90;;;;;;5148897;27;20049;-63
2022/03/09 07:31:20;;;;;;;12.63;7.75;;;1.00;99.90;;;;;;5147881;27;20054;-64
2022/03/09 07:33:51;;;;;;;13.02;8.20;;;1.10;99.90;;;;;;5150028;27;20031;-63
2022/03/09 07:36:58;;;;;;;12.07;7.72;;;1.20;99.90;;;;;;5148699;27;20047;-64
2022/03/09 07:39:33;;;;;;;13.98;7.65;;;1.30;99.90;;;;;;5149570;27;20039;-63
2022/03/09 07:42:10;;;;;;;15.02;8.05;;;1.40;99.90;;;;;;5148695;27;20043;-64
2022/03/09 07:44:48;;;;;;;14.52;8.43;;;1.70;99.90;;;;;;5148614;27;20039;-63
2022/03/09 07:47:16;;;;;;;13.93;7.68;;;1.50;99.90;;;;;;5148110;27;20117;-63
2022/03/09 07:49:42;;;;;;;13.27;7.57;;;1.60;99.90;;;;;;5148890;27;20089;-64
2022/03/09 07:52:17;;;;;;;13.85;7.60;;;1.70;99.90;;;;;;5146945;27;20105;-63
2022/03/09 07:54:49;;;;;;;12.27;7.85;;;1.80;99.90;;;;;;5148337;27;20043;-63
2022/03/09 07:57:26;;;;;;;13.55;7.85;;;2.00;99.90;;;;;;5149790;27;20038;-64
2022/03/09 08:00:12;;;;;;;14.35;8.07;;;2.20;99.90;;;;;;5148333;27;20039;-63
2022/03/09 08:03:17;;;;;;;13.85;7.15;;;2.30;99.90;;;;;;5147588;27;20443;-64
2022/03/09 08:05:56;;;;;;;11.40;7.70;;;2.40;99.90;;;;;;5151058;27;20037;-64
2022/03/09 08:08:30;;;;;;;13.05;7.78;;;2.50;99.90;;;;;;5149221;27;20069;-64
2022/03/09 08:11:07;;;;;;;13.90;7.45;;;2.70;99.90;;;;;;5148187;27;20095;-64
2022/03/09 08:13:44;;;;;;;13.85;8.20;;;2.90;99.90;;;;;;5148275;27;20118;-64
2022/03/09 08:16:13;;;;;;;11.80;7.38;;;3.00;99.90;;;;;;5145993;27;20047;-63
2022/03/09 08:18:41;;;;;;;12.52;7.93;;;3.10;99.90;;;;;;5149985;27;20095;-64
2022/03/09 08:21:36;;;;;;;12.27;7.68;;;3.20;99.90;;;;;;5146102;27;20045;-64
2022/03/09 08:24:27;;;;;;;12.90;7.50;;;3.40;99.90;;;;;;5144972;27;20066;-64
2022/03/09 08:26:55;;;;;;;14.93;7.75;;;3.60;99.90;;;;;;5145527;27;20061;-63
2022/03/09 08:29:30;;;;;;;11.85;7.07;;;3.60;99.90;;;;;;5132433;27;20034;-64
2022/03/09 08:32:01;;;;;;;12.75;7.57;;;3.70;99.90;;;;;;5149217;27;20038;-64
2022/03/09 08:34:36;;;;;;;11.40;7.63;;;3.90;99.90;;;;;;5149508;27;20037;-64
2022/03/09 08:37:23;;;;;;;14.93;7.82;;;4.00;99.90;;;;;;5165774;27;20039;-64
2022/03/09 08:39:53;;;;;;;12.68;7.25;;;4.10;99.90;;;;;;5149690;27;20118;-64
2022/03/09 08:42:31;;;;;;;12.27;7.45;;;4.20;99.90;;;;;;5150005;27;20449;-64
2022/03/09 08:45:02;;;;;;;13.00;7.30;;;4.30;99.90;;;;;;5150868;27;20491;-64
2022/03/09 08:47:37;;;;;;;12.20;7.00;;;4.50;99.90;;;;;;5149210;27;20038;-64
2022/03/09 08:50:14;;;;;;;10.77;7.38;;;4.60;99.90;;;;;;5146974;27;20054;-63
2022/03/09 08:52:43;;;;;;;12.82;7.93;;;4.70;99.90;;;;;;5147204;27;20039;-63
2022/03/09 08:55:35;;;;;;;12.60;7.35;;;4.80;99.90;;;;;;5149651;27;20035;-64
2022/03/09 08:58:04;;;;;;;14.02;8.05;;;4.90;99.90;;;;;;5134125;27;20082;-64
2022/03/09 09:00:58;;;;;;;10.43;7.00;;;5.00;99.90;;;;;;5149642;27;20039;-64
2022/03/09 09:03:34;;;;;;;11.80;7.30;;;5.10;99.90;;;;;;5140740;27;20129;-63
2022/03/09 09:06:03;;;;;;;11.82;7.65;;;5.20;99.90;;;;;;5149337;27;20175;-63
2022/03/09 09:08:31;;;;;;;12.52;8.18;;;5.30;99.90;;;;;;5144078;27;20071;-63
2022/03/09 09:11:00;;;;;;;13.68;7.60;;;5.50;99.20;;;;;;5144592;27;20038;-64
2022/03/09 09:13:29;;;;;;;14.50;7.25;;;5.60;99.10;;;;;;5145897;27;20042;-64
2022/03/09 09:16:01;;;;;;;11.48;7.90;;;5.60;99.70;;;;;;5143724;27;20126;-64
2022/03/09 09:18:38;;;;;;;13.32;7.22;;;5.70;99.60;;;;;;5144306;27;20054;-64
2022/03/09 09:21:07;;;;;;;12.45;7.57;;;5.80;99.60;;;;;;5143070;27;20046;-64
2022/03/09 09:23:48;;;;;;;12.20;7.50;;;5.90;99.60;;;;;;5142955;27;20061;-64
2022/03/09 09:26:48;;;;;;;;;;;6.00;99.90;;;;;;5149694;27;20034;-64
2022/03/09 09:29:29;;;;;;;14.15;7.53;;;6.10;97.90;;;;;;5107620;27;20384;-64
2022/03/09 09:32:18;;;;;;;12.02;7.50;;;6.20;98.90;;;;;;5103200;27;20066;-64
2022/03/09 09:34:46;;;;;;;10.50;7.18;;;6.30;98.80;;;;;;5108899;28;20043;-64
2022/03/09 09:37:12;;;;;;;12.20;7.30;;;6.40;98.30;;;;;;5107459;27;20052;-64
2022/03/09 09:39:46;;;;;;;12.55;7.30;;;6.50;98.20;;;;;;5111638;28;20044;-64
2022/03/09 09:42:21;;;;;;;11.68;7.22;;;6.60;97.20;;;;;;5111027;27;20048;-64
2022/03/09 09:45:13;;;;;;;10.00;7.07;;;6.70;96.90;;;;;;5111487;28;20160;-64
2022/03/09 09:47:45;;;;;;;12.27;7.65;;;6.80;94.70;;;;;;5101857;27;20075;-64
2022/03/09 09:50:32;;;;;;;11.75;7.32;;;7.00;94.00;;;;;;5110053;28;20027;-64
2022/03/09 09:53:17;;;;;;;11.50;7.75;;;7.10;93.10;;;;;;5109457;27;20120;-64
2022/03/09 09:55:43;;;;;;;10.95;6.85;;;7.10;94.00;;;;;;5109120;28;20118;-64
2022/03/09 09:58:22;;;;;;;13.02;8.15;;;7.20;93.60;;;;;;5108089;28;20503;-63
2022/03/09 10:01:00;;;;;;;10.75;7.40;;;7.30;93.10;;;;;;5109735;28;20031;-64
2022/03/09 10:03:41;;;;;;;11.85;7.20;;;7.30;91.80;;;;;;5111657;28;20563;-64
2022/03/09 10:06:39;;;;;;;13.35;7.70;;;7.50;91.30;;;;;;5091439;28;20125;-63
2022/03/09 10:09:06;;;;;;;12.18;7.10;;;7.60;91.00;;;;;;5108778;28;20050;-64
2022/03/09 10:12:08;;;;;;;11.02;7.43;;;7.60;91.80;;;;;;5110610;28;20638;-64
2022/03/09 10:15:08;;;;;;;12.68;7.80;;;7.70;90.20;;;;;;5110642;28;20044;-64
2022/03/09 10:17:37;;;;;;;13.35;7.65;;;7.70;91.40;;;;;;5083992;28;20044;-63
2022/03/09 10:20:16;;;;;;;12.70;7.88;;;7.80;91.20;;;;;;5110348;28;20082;-64
2022/03/09 10:22:45;;;;;;;13.40;7.22;;;8.00;90.40;;;;;;5110847;28;20085;-64
2022/03/09 10:25:20;;;;;;;12.30;7.60;;;8.10;89.60;;;;;;5112499;28;20049;-64
2022/03/09 10:27:57;;;;;;;10.52;7.25;;;8.20;89.50;;;;;;5121326;27;20047;-64
2022/03/09 10:31:02;;;;;;;11.95;7.35;;;8.30;89.00;;;;;;5150017;27;20039;-64
2022/03/09 10:33:41;;;;;;;12.07;8.00;;;8.40;84.40;;;;;;5149674;27;20046;-64
2022/03/09 10:36:26;;;;;;;12.23;7.50;;;8.50;86.20;;;;;;5149594;27;20051;-64
2022/03/09 10:39:20;;;;;;;12.85;7.65;;;8.60;86.30;;;;;;5145494;27;20482;-64
2022/03/09 10:41:52;;;;;;;13.10;7.50;;;8.60;83.30;;;;;;5148757;27;20091;-64
2022/03/09 10:45:03;;;;;;;11.43;7.50;;;8.70;83.60;;;;;;5151220;27;20036;-64
2022/03/09 10:48:06;;;;;;;12.52;7.65;;;8.80;82.20;;;;;;5139454;27;20038;-63
2022/03/09 10:50:55;;;;;;;10.68;7.10;;;8.80;84.20;;;;;;5151502;27;20058;-64
2022/03/09 10:53:46;;;;;;;11.35;7.28;;;8.90;81.80;;;;;;5151104;27;20052;-64
2022/03/09 10:56:24;;;;;;;12.48;7.45;;;9.00;82.20;;;;;;5148301;27;20058;-64
2022/03/09 11:00:00;;;;;;;11.05;7.18;;;9.10;79.60;;;;;;5149419;27;20555;-64
2022/03/09 11:02:16;;;;;;;10.07;7.75;;;9.20;78.90;;;;;;5136598;27;20047;-64
2022/03/09 11:05:05;;;;;;;;;;;9.30;78.70;;;;;;5148436;27;20043;-64
2022/03/09 11:07:52;;;;;;;11.77;7.72;;;9.30;78.40;;;;;;5140104;27;20006;-64
2022/03/09 11:10:20;;;;;;;11.05;7.53;;;9.40;78.90;;;;;;5150117;27;20505;-64
2022/03/09 11:12:56;;;;;;;12.75;7.47;;;9.50;78.80;;;;;;5145883;27;20034;-64
2022/03/09 11:15:47;;;;;;;11.80;7.80;;;9.50;77.60;;;;;;5142750;27;20031;-64
2022/03/09 11:18:31;;;;;;;11.82;7.93;;;9.60;78.60;;;;;;5129638;27;20050;-63
2022/03/09 11:21:04;;;;;;;10.15;7.88;;;9.60;78.10;;;;;;5145381;27;20039;-64
2022/03/09 11:23:36;;;;;;;12.60;8.38;;;9.70;75.50;;;;;;5148251;27;20408;-64
2022/03/09 11:26:17;;;;;;;12.50;8.07;;;9.70;75.60;;;;;;5145865;27;20228;-64
2022/03/09 11:29:01;;;;;;;13.77;8.68;;;9.80;73.40;;;;;;5151101;27;20414;-64
2022/03/09 11:31:51;;;;;;;12.60;8.82;;;9.80;73.70;;;;;;5148410;27;20483;-64
2022/03/09 11:34:39;;;;;;;14.15;8.60;;;9.90;71.90;;;;;;5164772;27;20569;-64
2022/03/09 11:37:28;;;;;;;12.15;9.07;;;9.90;71.80;;;;;;5145730;27;20762;-63
2022/03/09 11:40:15;;;;;;;16.98;8.65;;;9.90;73.30;;;;;;5147457;27;20114;-64
2022/03/09 11:42:44;;;;;;;12.25;8.18;;;9.90;70.20;;;;;;5150174;27;20039;-64
2022/03/09 11:45:29;;;;;;;12.73;8.20;;;9.90;72.40;;;;;;5128450;27;20039;-63
2022/03/09 11:48:14;;;;;;;12.48;8.30;;;9.90;70.80;;;;;;5146681;27;20037;-64
2022/03/09 11:50:56;;;;;;;12.90;8.70;;;10.00;71.30;;;;;;5148796;27;20086;-64
2022/03/09 11:53:48;;;;;;;13.48;8.52;;;10.00;69.50;;;;;;5149657;27;20086;-64
2022/03/09 11:56:51;;;;;;;12.90;8.90;;;10.10;69.10;;;;;;5148223;27;20099;-64
2022/03/09 11:59:32;;;;;;;12.73;8.65;;;10.10;69.80;;;;;;5148806;27;20081;-64
2022/03/09 12:02:30;;;;;;;15.30;8.95;;;10.10;70.30;;;;;;5148287;27;20042;-64
2022/03/09 12:05:34;;;;;;;11.30;8.05;;;10.20;67.90;;;;;;5146837;27;20129;-64
2022/03/09 12:08:36;;;;;;;12.52;8.95;;;10.20;68.70;;;;;;5151292;27;20039;-64
2022/03/09 12:11:21;;;;;;;13.82;8.68;;;10.30;67.20;;;;;;5150407;27;20103;-64
2022/03/09 12:13:54;;;;;;;11.55;8.32;;;10.40;67.30;;;;;;5146208;27;20125;-64
2022/03/09 12:16:31;;;;;;;12.35;8.55;;;10.40;68.90;;;;;;5145738;27;20046;-64
2022/03/09 12:19:18;;;;;;;13.65;8.55;;;10.40;68.80;;;;;;5146285;27;20034;-64
2022/03/09 12:21:56;;;;;;;13.35;8.85;;;10.50;68.60;;;;;;5148539;27;20041;-64
2022/03/09 12:24:31;;;;;;;14.80;9.27;;;10.50;66.50;;;;;;5162965;27;20035;-64
2022/03/09 12:27:33;;;;;;;14.82;8.05;;;10.60;66.80;;;;;;5147260;27;20049;-64
2022/03/09 12:30:22;;;;;;;12.00;8.27;;;10.60;64.20;;;;;;5148186;27;20050;-64
2022/03/09 12:32:58;;;;;;;12.05;8.57;;;10.70;66.40;;;;;;5149163;27;20046;-64
2022/03/09 12:35:32;;;;;;;15.95;8.90;;;10.70;66.00;;;;;;5148938;27;20072;-64
2022/03/09 12:38:07;;;;;;;13.60;9.13;;;10.80;65.20;;;;;;5146674;27;20038;-64
2022/03/09 12:40:41;;;;;;;11.77;8.90;;;10.80;65.50;;;;;;5145290;27;20413;-64
2022/03/09 12:46:37;;;;;;;13.63;8.95;;;10.90;65.80;;;;;;5135092;27;20046;-65
2022/03/09 12:49:49;;;;;;;14.45;8.98;;;10.90;66.20;;;;;;5142386;27;20421;-65
2022/03/09 12:52:32;;;;;;;15.48;8.95;;;11.00;64.60;;;;;;5132761;27;20050;-64
2022/03/09 12:55:30;;;;;;;13.18;8.75;;;11.00;62.50;;;;;;5147355;27;20035;-64
2022/03/09 12:58:02;;;;;;;12.50;8.65;;;11.10;63.40;;;;;;5129725;27;20050;-64
2022/03/09 13:00:34;;;;;;;13.35;8.63;;;11.10;63.60;;;;;;5149332;27;20030;-65
2022/03/09 13:03:00;;;;;;;10.90;8.27;;;11.10;63.70;;;;;;5143290;27;20402;-65
2022/03/09 13:05:31;;;;;;;13.30;8.48;;;11.10;63.00;;;;;;5147026;27;20033;-65
2022/03/09 13:08:04;;;;;;;12.55;8.43;;;11.10;62.80;;;;;;5147061;27;20051;-65
2022/03/09 13:10:41;;;;;;;12.65;8.95;;;11.10;62.20;;;;;;5147296;27;20051;-65
2022/03/09 13:13:15;;;;;;;13.90;9.18;;;11.10;62.60;;;;;;5148181;27;21013;-64
2022/03/09 13:15:51;;;;;;;14.35;9.23;;;11.20;62.20;;;;;;5150213;27;20045;-64
2022/03/09 13:18:34;;;;;;;11.75;8.65;;;11.20;62.60;;;;;;5149418;27;20051;-64
2022/03/09 13:24:16;;;;;;;12.82;9.10;;;11.20;62.70;;;;;;5087090;28;20090;-64
2022/03/09 13:26:57;;;;;;;11.65;8.32;;;11.30;63.00;;;;;;5087010;28;20548;-64
2022/03/09 13:29:46;;;;;;;12.02;8.70;;;11.30;62.30;;;;;;5129952;27;20046;-64
2022/03/09 13:32:34;;;;;;;17.45;9.18;;;11.40;62.40;;;;;;5149039;27;20034;-64
2022/03/09 13:35:15;;;;;;;11.43;8.63;;;11.50;62.20;;;;;;5148978;27;20124;-65
2022/03/09 13:38:04;;;;;;;11.85;8.85;;;11.40;60.90;;;;;;5149852;27;20038;-64
2022/03/09 13:40:59;;;;;;;14.00;9.63;;;11.40;62.00;;;;;;5145347;27;20359;-64
2022/03/09 13:43:40;;;;;;;13.50;8.90;;;11.40;61.20;;;;;;5146818;27;20047;-65
2022/03/09 13:46:30;;;;;;;;;;;;;;;;;;;;;
2022/03/09 13:49:18;;;;;;;14.05;9.75;;;11.40;62.60;;;;;;5145461;27;20046;-64
2022/03/09 13:51:53;;;;;;;14.23;10.00;;;11.40;63.00;;;;;;5146899;27;20050;-65
2022/03/09 13:54:43;;;;;;;15.07;9.63;;;11.50;60.90;;;;;;5147365;27;20546;-65
2022/03/09 13:57:27;;;;;;;15.35;9.45;;;11.40;60.30;;;;;;5147132;27;20039;-64
2022/03/09 14:01:04;;;;;;;11.50;8.88;;;11.40;61.60;;;;;;5147548;27;20079;-64
2022/03/09 14:03:50;;;;;;;12.13;9.32;;;11.50;62.80;;;;;;5105766;27;20501;-64
2022/03/09 14:06:40;;;;;;;13.05;9.10;;;11.50;61.40;;;;;;5149103;27;20027;-64
2022/03/09 14:09:21;;;;;;;15.23;10.10;;;11.50;62.50;;;;;;5147814;27;20043;-64
2022/03/09 14:12:19;;;;;;;14.50;9.73;;;11.50;61.00;;;;;;5150180;27;20086;-64
2022/03/09 14:39:49;;;;;;;17.48;10.07;;;11.50;61.60;;;;;;5126341;27;20111;-65
2022/03/09 14:42:26;;;;;;;;;;;11.30;60.50;;;;;;5083462;28;20147;-64
2022/03/09 14:45:15;;;;;;;16.38;10.35;;;11.30;62.20;;;;;;5067677;28;20340;-64
2022/03/09 14:48:02;;;;;;;15.45;9.88;;;11.30;62.20;;;;;;5068004;28;20033;-65